sensor_id;sensor_type;location;lat;lon;timestamp;P1;durP1;ratioP1;P2;durP2;ratioP2
49972;SDS011;71845;49.798;10.968;2023-12-20T00:01:09;10.00;;;5.30;;
49972;SDS011;71845;49.798;10.968;2023-12-20T00:03:39;8.43;;;5.25;;
49972;SDS011;71845;49.798;10.968;2023-12-20T00:06:16;8.75;;;4.97;;
49972;SDS011;71845;49.798;10.968;2023-12-20T00:09:00;9.13;;;5.53;;
49972;SDS011;71845;49.798;10.968;2023-12-20T00:11:28;9.05;;;5.32;;
49972;SDS011;71845;49.798;10.968;2023-12-20T00:13:56;8.23;;;4.93;;
49972;SDS011;71845;49.798;10.968;2023-12-20T00:16:22;8.60;;;4.35;;
49972;SDS011;71845;49.798;10.968;2023-12-20T00:18:58;6.80;;;4.07;;
49972;SDS011;71845;49.798;10.968;2023-12-20T00:21:28;8.30;;;4.47;;
49972;SDS011;71845;49.798;10.968;2023-12-20T00:23:58;9.45;;;4.18;;
49972;SDS011;71845;49.798;10.968;2023-12-20T00:26:27;9.55;;;4.63;;
49972;SDS011;71845;49.798;10.968;2023-12-20T00:28:57;8.35;;;4.18;;
49972;SDS011;71845;49.798;10.968;2023-12-20T00:31:33;6.70;;;4.10;;
49972;SDS011;71845;49.798;10.968;2023-12-20T00:34:00;8.65;;;4.07;;
49972;SDS011;71845;49.798;10.968;2023-12-20T00:36:28;6.32;;;3.63;;
49972;SDS011;71845;49.798;10.968;2023-12-20T00:39:00;6.32;;;3.63;;
49972;SDS011;71845;49.798;10.968;2023-12-20T00:41:27;7.43;;;4.30;;
49972;SDS011;71845;49.798;10.968;2023-12-20T00:43:57;6.25;;;3.50;;
49972;SDS011;71845;49.798;10.968;2023-12-20T00:46:25;7.53;;;3.60;;
49972;SDS011;71845;49.798;10.968;2023-12-20T00:48:55;5.97;;;3.10;;
49972;SDS011;71845;49.798;10.968;2023-12-20T00:51:23;8.00;;;3.15;;
49972;SDS011;71845;49.798;10.968;2023-12-20T00:53:51;5.70;;;3.22;;
49972;SDS011;71845;49.798;10.968;2023-12-20T00:56:26;6.05;;;2.92;;
49972;SDS011;71845;49.798;10.968;2023-12-20T00:58:56;5.55;;;2.80;;
49972;SDS011;71845;49.798;10.968;2023-12-20T01:01:26;4.93;;;2.55;;
49972;SDS011;71845;49.798;10.968;2023-12-20T01:03:54;4.90;;;2.67;;
49972;SDS011;71845;49.798;10.968;2023-12-20T01:06:24;4.78;;;2.47;;
49972;SDS011;71845;49.798;10.968;2023-12-20T01:08:53;5.43;;;2.70;;
49972;SDS011;71845;49.798;10.968;2023-12-20T01:11:35;6.18;;;2.38;;
49972;SDS011;71845;49.798;10.968;2023-12-20T01:14:05;4.65;;;2.40;;
49972;SDS011;71845;49.798;10.968;2023-12-20T01:16:36;4.68;;;2.33;;
49972;SDS011;71845;49.798;10.968;2023-12-20T01:19:04;5.28;;;2.22;;
49972;SDS011;71845;49.798;10.968;2023-12-20T01:21:33;5.10;;;2.40;;
49972;SDS011;71845;49.798;10.968;2023-12-20T01:24:08;4.63;;;2.20;;
49972;SDS011;71845;49.798;10.968;2023-12-20T01:26:43;3.92;;;2.10;;
49972;SDS011;71845;49.798;10.968;2023-12-20T01:29:13;3.85;;;2.08;;
49972;SDS011;71845;49.798;10.968;2023-12-20T01:31:42;4.68;;;1.88;;
49972;SDS011;71845;49.798;10.968;2023-12-20T01:34:12;3.78;;;2.17;;
49972;SDS011;71845;49.798;10.968;2023-12-20T01:36:42;3.22;;;1.70;;
49972;SDS011;71845;49.798;10.968;2023-12-20T01:39:12;3.05;;;1.65;;
49972;SDS011;71845;49.798;10.968;2023-12-20T01:41:54;3.70;;;1.63;;
49972;SDS011;71845;49.798;10.968;2023-12-20T01:44:22;2.65;;;1.50;;
49972;SDS011;71845;49.798;10.968;2023-12-20T01:46:50;2.72;;;1.42;;
49972;SDS011;71845;49.798;10.968;2023-12-20T01:49:19;1.90;;;1.15;;
49972;SDS011;71845;49.798;10.968;2023-12-20T01:51:49;2.78;;;1.23;;
49972;SDS011;71845;49.798;10.968;2023-12-20T01:54:25;1.88;;;1.02;;
49972;SDS011;71845;49.798;10.968;2023-12-20T01:56:55;2.15;;;1.20;;
49972;SDS011;71845;49.798;10.968;2023-12-20T01:59:23;2.65;;;1.20;;
49972;SDS011;71845;49.798;10.968;2023-12-20T02:01:51;2.63;;;1.10;;
49972;SDS011;71845;49.798;10.968;2023-12-20T02:04:20;1.98;;;1.02;;
49972;SDS011;71845;49.798;10.968;2023-12-20T02:06:52;1.83;;;0.90;;
49972;SDS011;71845;49.798;10.968;2023-12-20T02:09:26;1.75;;;0.80;;
49972;SDS011;71845;49.798;10.968;2023-12-20T02:12:10;2.38;;;1.20;;
49972;SDS011;71845;49.798;10.968;2023-12-20T02:14:40;1.63;;;0.63;;
49972;SDS011;71845;49.798;10.968;2023-12-20T02:17:08;1.77;;;0.70;;
49972;SDS011;71845;49.798;10.968;2023-12-20T02:19:39;2.97;;;0.73;;
49972;SDS011;71845;49.798;10.968;2023-12-20T02:22:15;1.33;;;0.70;;
49972;SDS011;71845;49.798;10.968;2023-12-20T02:24:45;1.30;;;0.57;;
49972;SDS011;71845;49.798;10.968;2023-12-20T02:27:14;2.45;;;0.52;;
49972;SDS011;71845;49.798;10.968;2023-12-20T02:29:48;1.40;;;0.65;;
49972;SDS011;71845;49.798;10.968;2023-12-20T02:32:16;1.10;;;0.60;;
49972;SDS011;71845;49.798;10.968;2023-12-20T02:34:53;1.10;;;0.70;;
49972;SDS011;71845;49.798;10.968;2023-12-20T02:37:35;1.75;;;0.70;;
49972;SDS011;71845;49.798;10.968;2023-12-20T02:40:05;1.30;;;0.68;;
49972;SDS011;71845;49.798;10.968;2023-12-20T02:42:49;1.00;;;0.63;;
49972;SDS011;71845;49.798;10.968;2023-12-20T02:45:18;1.08;;;0.57;;
49972;SDS011;71845;49.798;10.968;2023-12-20T02:47:48;1.65;;;0.75;;
49972;SDS011;71845;49.798;10.968;2023-12-20T02:50:16;1.15;;;0.50;;
49972;SDS011;71845;49.798;10.968;2023-12-20T02:52:47;1.35;;;0.82;;
49972;SDS011;71845;49.798;10.968;2023-12-20T02:55:17;1.50;;;0.50;;
49972;SDS011;71845;49.798;10.968;2023-12-20T02:57:50;0.68;;;0.50;;
49972;SDS011;71845;49.798;10.968;2023-12-20T03:00:18;0.88;;;0.50;;
49972;SDS011;71845;49.798;10.968;2023-12-20T03:02:46;1.00;;;0.50;;
49972;SDS011;71845;49.798;10.968;2023-12-20T03:05:16;1.63;;;0.68;;
49972;SDS011;71845;49.798;10.968;2023-12-20T03:08:05;0.73;;;0.47;;
49972;SDS011;71845;49.798;10.968;2023-12-20T03:10:37;0.88;;;0.63;;
49972;SDS011;71845;49.798;10.968;2023-12-20T03:13:08;1.40;;;0.70;;
49972;SDS011;71845;49.798;10.968;2023-12-20T03:15:36;0.98;;;0.50;;
49972;SDS011;71845;49.798;10.968;2023-12-20T03:18:04;0.80;;;0.45;;
49972;SDS011;71845;49.798;10.968;2023-12-20T03:20:35;2.42;;;0.60;;
49972;SDS011;71845;49.798;10.968;2023-12-20T03:23:10;1.73;;;0.40;;
49972;SDS011;71845;49.798;10.968;2023-12-20T03:25:38;1.00;;;0.50;;
49972;SDS011;71845;49.798;10.968;2023-12-20T03:28:05;1.38;;;0.60;;
49972;SDS011;71845;49.798;10.968;2023-12-20T03:30:33;0.75;;;0.30;;
49972;SDS011;71845;49.798;10.968;2023-12-20T03:33:04;1.00;;;0.60;;
49972;SDS011;71845;49.798;10.968;2023-12-20T03:35:39;0.80;;;0.50;;
49972;SDS011;71845;49.798;10.968;2023-12-20T03:38:11;0.90;;;0.50;;
49972;SDS011;71845;49.798;10.968;2023-12-20T03:40:39;1.05;;;0.50;;
49972;SDS011;71845;49.798;10.968;2023-12-20T03:43:09;2.22;;;0.43;;
49972;SDS011;71845;49.798;10.968;2023-12-20T03:45:44;0.93;;;0.50;;
49972;SDS011;71845;49.798;10.968;2023-12-20T03:48:12;0.98;;;0.60;;
49972;SDS011;71845;49.798;10.968;2023-12-20T03:50:42;0.50;;;0.40;;
49972;SDS011;71845;49.798;10.968;2023-12-20T03:53:22;0.68;;;0.22;;
49972;SDS011;71845;49.798;10.968;2023-12-20T03:55:52;0.20;;;0.17;;
49972;SDS011;71845;49.798;10.968;2023-12-20T03:58:22;0.50;;;0.30;;
49972;SDS011;71845;49.798;10.968;2023-12-20T04:00:53;0.30;;;0.20;;
49972;SDS011;71845;49.798;10.968;2023-12-20T04:03:22;0.20;;;0.20;;
49972;SDS011;71845;49.798;10.968;2023-12-20T04:05:56;1.15;;;0.30;;
49972;SDS011;71845;49.798;10.968;2023-12-20T04:08:31;0.70;;;0.28;;
49972;SDS011;71845;49.798;10.968;2023-12-20T04:11:01;0.82;;;0.30;;
49972;SDS011;71845;49.798;10.968;2023-12-20T04:13:30;0.32;;;0.22;;
49972;SDS011;71845;49.798;10.968;2023-12-20T04:16:01;0.30;;;0.20;;
49972;SDS011;71845;49.798;10.968;2023-12-20T04:18:29;0.63;;;0.30;;
49972;SDS011;71845;49.798;10.968;2023-12-20T04:20:58;1.13;;;0.30;;
49972;SDS011;71845;49.798;10.968;2023-12-20T04:23:27;1.15;;;0.30;;
49972;SDS011;71845;49.798;10.968;2023-12-20T04:26:05;0.30;;;0.20;;
49972;SDS011;71845;49.798;10.968;2023-12-20T04:28:35;0.52;;;0.20;;
49972;SDS011;71845;49.798;10.968;2023-12-20T04:31:07;0.90;;;0.30;;
49972;SDS011;71845;49.798;10.968;2023-12-20T04:33:46;0.20;;;0.10;;
49972;SDS011;71845;49.798;10.968;2023-12-20T04:36:14;0.30;;;0.20;;
49972;SDS011;71845;49.798;10.968;2023-12-20T04:38:58;0.15;;;0.15;;
49972;SDS011;71845;49.798;10.968;2023-12-20T04:41:34;0.20;;;0.20;;
49972;SDS011;71845;49.798;10.968;2023-12-20T04:44:02;0.35;;;0.20;;
49972;SDS011;71845;49.798;10.968;2023-12-20T04:46:33;1.08;;;0.20;;
49972;SDS011;71845;49.798;10.968;2023-12-20T04:49:04;0.22;;;0.20;;
49972;SDS011;71845;49.798;10.968;2023-12-20T04:51:34;0.55;;;0.25;;
49972;SDS011;71845;49.798;10.968;2023-12-20T04:54:06;0.15;;;0.15;;
49972;SDS011;71845;49.798;10.968;2023-12-20T04:56:41;0.20;;;0.20;;
49972;SDS011;71845;49.798;10.968;2023-12-20T04:59:11;0.20;;;0.20;;
49972;SDS011;71845;49.798;10.968;2023-12-20T05:01:40;0.30;;;0.20;;
49972;SDS011;71845;49.798;10.968;2023-12-20T05:04:10;0.32;;;0.28;;
49972;SDS011;71845;49.798;10.968;2023-12-20T05:06:38;0.50;;;0.20;;
49972;SDS011;71845;49.798;10.968;2023-12-20T05:09:12;0.30;;;0.30;;
49972;SDS011;71845;49.798;10.968;2023-12-20T05:11:39;1.08;;;0.60;;
49972;SDS011;71845;49.798;10.968;2023-12-20T05:14:10;0.90;;;0.30;;
49972;SDS011;71845;49.798;10.968;2023-12-20T05:16:40;0.80;;;0.43;;
49972;SDS011;71845;49.798;10.968;2023-12-20T05:19:17;0.38;;;0.38;;
49972;SDS011;71845;49.798;10.968;2023-12-20T05:21:45;0.63;;;0.30;;
49972;SDS011;71845;49.798;10.968;2023-12-20T05:24:28;0.20;;;0.20;;
49972;SDS011;71845;49.798;10.968;2023-12-20T05:27:04;0.75;;;0.40;;
49972;SDS011;71845;49.798;10.968;2023-12-20T05:29:39;1.40;;;0.40;;
49972;SDS011;71845;49.798;10.968;2023-12-20T05:32:10;0.30;;;0.22;;
49972;SDS011;71845;49.798;10.968;2023-12-20T05:34:40;3.35;;;0.50;;
49972;SDS011;71845;49.798;10.968;2023-12-20T05:37:10;0.68;;;0.50;;
49972;SDS011;71845;49.798;10.968;2023-12-20T05:39:42;1.33;;;0.52;;
49972;SDS011;71845;49.798;10.968;2023-12-20T05:42:15;1.20;;;0.60;;
49972;SDS011;71845;49.798;10.968;2023-12-20T05:44:46;1.05;;;0.60;;
49972;SDS011;71845;49.798;10.968;2023-12-20T05:47:17;0.98;;;0.70;;
49972;SDS011;71845;49.798;10.968;2023-12-20T05:49:46;0.65;;;0.60;;
49972;SDS011;71845;49.798;10.968;2023-12-20T05:52:28;1.40;;;0.85;;
49972;SDS011;71845;49.798;10.968;2023-12-20T05:55:10;1.48;;;0.80;;
49972;SDS011;71845;49.798;10.968;2023-12-20T05:57:38;1.15;;;0.80;;
49972;SDS011;71845;49.798;10.968;2023-12-20T06:00:07;1.52;;;0.85;;
49972;SDS011;71845;49.798;10.968;2023-12-20T06:02:38;1.23;;;0.93;;
49972;SDS011;71845;49.798;10.968;2023-12-20T06:05:14;1.42;;;0.90;;
49972;SDS011;71845;49.798;10.968;2023-12-20T06:07:45;2.05;;;1.13;;
49972;SDS011;71845;49.798;10.968;2023-12-20T06:10:31;2.55;;;1.20;;
49972;SDS011;71845;49.798;10.968;2023-12-20T06:13:00;1.83;;;1.15;;
49972;SDS011;71845;49.798;10.968;2023-12-20T06:15:30;2.17;;;1.40;;
49972;SDS011;71845;49.798;10.968;2023-12-20T06:18:02;2.30;;;1.40;;
49972;SDS011;71845;49.798;10.968;2023-12-20T06:20:32;2.70;;;1.48;;
49972;SDS011;71845;49.798;10.968;2023-12-20T06:23:02;2.70;;;1.65;;
49972;SDS011;71845;49.798;10.968;2023-12-20T06:25:37;2.10;;;1.35;;
49972;SDS011;71845;49.798;10.968;2023-12-20T06:28:05;2.65;;;1.50;;
49972;SDS011;71845;49.798;10.968;2023-12-20T06:30:34;2.33;;;1.67;;
49972;SDS011;71845;49.798;10.968;2023-12-20T06:33:05;3.35;;;1.55;;
49972;SDS011;71845;49.798;10.968;2023-12-20T06:35:33;2.55;;;1.42;;
49972;SDS011;71845;49.798;10.968;2023-12-20T06:38:03;2.78;;;1.40;;
49972;SDS011;71845;49.798;10.968;2023-12-20T06:40:48;2.85;;;1.48;;
49972;SDS011;71845;49.798;10.968;2023-12-20T06:43:21;2.30;;;1.30;;
49972;SDS011;71845;49.798;10.968;2023-12-20T06:45:50;2.67;;;1.30;;
49972;SDS011;71845;49.798;10.968;2023-12-20T06:48:21;2.85;;;1.33;;
49972;SDS011;71845;49.798;10.968;2023-12-20T06:50:54;2.35;;;1.20;;
49972;SDS011;71845;49.798;10.968;2023-12-20T06:53:22;1.98;;;1.02;;
49972;SDS011;71845;49.798;10.968;2023-12-20T06:55:52;2.20;;;1.15;;
49972;SDS011;71845;49.798;10.968;2023-12-20T06:58:18;1.50;;;0.90;;
49972;SDS011;71845;49.798;10.968;2023-12-20T07:00:49;2.40;;;1.25;;
49972;SDS011;71845;49.798;10.968;2023-12-20T07:03:25;2.67;;;1.15;;
49972;SDS011;71845;49.798;10.968;2023-12-20T07:06:02;1.40;;;0.80;;
49972;SDS011;71845;49.798;10.968;2023-12-20T07:08:32;3.30;;;0.90;;
49972;SDS011;71845;49.798;10.968;2023-12-20T07:11:07;1.48;;;0.93;;
49972;SDS011;71845;49.798;10.968;2023-12-20T07:13:37;1.50;;;1.17;;
49972;SDS011;71845;49.798;10.968;2023-12-20T07:16:08;2.03;;;0.95;;
49972;SDS011;71845;49.798;10.968;2023-12-20T07:18:39;2.25;;;1.02;;
49972;SDS011;71845;49.798;10.968;2023-12-20T07:21:09;2.30;;;1.13;;
49972;SDS011;71845;49.798;10.968;2023-12-20T07:23:47;3.25;;;0.90;;
49972;SDS011;71845;49.798;10.968;2023-12-20T07:26:17;1.77;;;0.68;;
49972;SDS011;71845;49.798;10.968;2023-12-20T07:28:46;2.20;;;0.93;;
49972;SDS011;71845;49.798;10.968;2023-12-20T07:31:15;1.52;;;0.90;;
49972;SDS011;71845;49.798;10.968;2023-12-20T07:33:57;1.25;;;0.65;;
49972;SDS011;71845;49.798;10.968;2023-12-20T07:36:27;1.08;;;0.60;;
49972;SDS011;71845;49.798;10.968;2023-12-20T07:38:56;2.08;;;0.65;;
49972;SDS011;71845;49.798;10.968;2023-12-20T07:41:27;3.17;;;1.15;;
49972;SDS011;71845;49.798;10.968;2023-12-20T07:43:58;1.67;;;0.80;;
49972;SDS011;71845;49.798;10.968;2023-12-20T07:46:26;1.83;;;1.00;;
49972;SDS011;71845;49.798;10.968;2023-12-20T07:48:54;2.53;;;1.20;;
49972;SDS011;71845;49.798;10.968;2023-12-20T07:51:30;1.88;;;1.00;;
49972;SDS011;71845;49.798;10.968;2023-12-20T07:54:00;3.20;;;1.65;;
49972;SDS011;71845;49.798;10.968;2023-12-20T07:56:33;2.42;;;0.98;;
49972;SDS011;71845;49.798;10.968;2023-12-20T07:59:08;2.08;;;1.15;;
49972;SDS011;71845;49.798;10.968;2023-12-20T08:01:44;2.25;;;1.25;;
49972;SDS011;71845;49.798;10.968;2023-12-20T08:04:14;2.47;;;1.30;;
49972;SDS011;71845;49.798;10.968;2023-12-20T08:06:44;2.60;;;1.17;;
49972;SDS011;71845;49.798;10.968;2023-12-20T08:09:12;4.30;;;1.20;;
49972;SDS011;71845;49.798;10.968;2023-12-20T08:11:46;2.70;;;1.35;;
49972;SDS011;71845;49.798;10.968;2023-12-20T08:14:15;2.22;;;1.15;;
49972;SDS011;71845;49.798;10.968;2023-12-20T08:16:42;2.10;;;0.98;;
49972;SDS011;71845;49.798;10.968;2023-12-20T08:19:12;2.13;;;1.13;;
49972;SDS011;71845;49.798;10.968;2023-12-20T08:21:42;2.35;;;1.20;;
49972;SDS011;71845;49.798;10.968;2023-12-20T08:24:23;3.22;;;1.25;;
49972;SDS011;71845;49.798;10.968;2023-12-20T08:26:58;2.95;;;1.23;;
49972;SDS011;71845;49.798;10.968;2023-12-20T08:29:27;2.05;;;1.23;;
49972;SDS011;71845;49.798;10.968;2023-12-20T08:31:57;2.65;;;1.00;;
49972;SDS011;71845;49.798;10.968;2023-12-20T08:34:27;3.05;;;1.20;;
49972;SDS011;71845;49.798;10.968;2023-12-20T08:36:57;3.83;;;1.17;;
49972;SDS011;71845;49.798;10.968;2023-12-20T08:39:27;1.77;;;0.90;;
49972;SDS011;71845;49.798;10.968;2023-12-20T08:42:06;1.80;;;1.13;;
49972;SDS011;71845;49.798;10.968;2023-12-20T08:44:36;2.22;;;1.08;;
49972;SDS011;71845;49.798;10.968;2023-12-20T08:47:07;1.85;;;1.00;;
49972;SDS011;71845;49.798;10.968;2023-12-20T08:49:40;2.65;;;1.13;;
49972;SDS011;71845;49.798;10.968;2023-12-20T08:52:14;1.98;;;1.10;;
49972;SDS011;71845;49.798;10.968;2023-12-20T08:54:44;3.05;;;1.42;;
49972;SDS011;71845;49.798;10.968;2023-12-20T08:57:23;2.00;;;1.30;;
49972;SDS011;71845;49.798;10.968;2023-12-20T08:59:58;1.98;;;1.10;;
49972;SDS011;71845;49.798;10.968;2023-12-20T09:02:26;2.47;;;1.10;;
49972;SDS011;71845;49.798;10.968;2023-12-20T09:04:57;2.97;;;0.88;;
49972;SDS011;71845;49.798;10.968;2023-12-20T09:07:25;2.25;;;1.02;;
49972;SDS011;71845;49.798;10.968;2023-12-20T09:09:56;3.13;;;1.10;;
49972;SDS011;71845;49.798;10.968;2023-12-20T09:12:30;2.78;;;1.33;;
49972;SDS011;71845;49.798;10.968;2023-12-20T09:15:01;4.20;;;1.33;;
49972;SDS011;71845;49.798;10.968;2023-12-20T09:17:29;1.67;;;0.95;;
49972;SDS011;71845;49.798;10.968;2023-12-20T09:19:59;1.92;;;0.82;;
49972;SDS011;71845;49.798;10.968;2023-12-20T09:22:27;4.55;;;1.10;;
49972;SDS011;71845;49.798;10.968;2023-12-20T09:25:10;1.63;;;1.05;;
49972;SDS011;71845;49.798;10.968;2023-12-20T09:27:41;2.58;;;0.90;;
49972;SDS011;71845;49.798;10.968;2023-12-20T09:30:09;1.40;;;0.70;;
49972;SDS011;71845;49.798;10.968;2023-12-20T09:32:40;2.55;;;1.00;;
49972;SDS011;71845;49.798;10.968;2023-12-20T09:35:08;2.58;;;0.90;;
49972;SDS011;71845;49.798;10.968;2023-12-20T09:37:39;2.20;;;0.85;;
49972;SDS011;71845;49.798;10.968;2023-12-20T09:40:12;3.08;;;0.73;;
49972;SDS011;71845;49.798;10.968;2023-12-20T09:42:50;2.50;;;1.08;;
49972;SDS011;71845;49.798;10.968;2023-12-20T09:45:22;2.10;;;1.02;;
49972;SDS011;71845;49.798;10.968;2023-12-20T09:47:49;1.92;;;0.73;;
49972;SDS011;71845;49.798;10.968;2023-12-20T09:50:19;3.25;;;0.82;;
49972;SDS011;71845;49.798;10.968;2023-12-20T09:52:49;1.98;;;0.77;;
49972;SDS011;71845;49.798;10.968;2023-12-20T09:55:18;4.32;;;0.93;;
49972;SDS011;71845;49.798;10.968;2023-12-20T09:57:49;2.63;;;0.82;;
49972;SDS011;71845;49.798;10.968;2023-12-20T10:00:24;1.67;;;0.77;;
49972;SDS011;71845;49.798;10.968;2023-12-20T10:02:55;4.57;;;1.00;;
49972;SDS011;71845;49.798;10.968;2023-12-20T10:05:26;5.60;;;0.70;;
49972;SDS011;71845;49.798;10.968;2023-12-20T10:07:56;2.55;;;0.60;;
49972;SDS011;71845;49.798;10.968;2023-12-20T10:10:25;4.30;;;0.80;;
49972;SDS011;71845;49.798;10.968;2023-12-20T10:13:16;3.50;;;0.70;;
49972;SDS011;71845;49.798;10.968;2023-12-20T10:15:43;3.45;;;0.88;;
49972;SDS011;71845;49.798;10.968;2023-12-20T10:18:19;2.22;;;0.60;;
49972;SDS011;71845;49.798;10.968;2023-12-20T10:20:55;4.13;;;0.90;;
49972;SDS011;71845;49.798;10.968;2023-12-20T10:23:26;2.70;;;0.80;;
49972;SDS011;71845;49.798;10.968;2023-12-20T10:25:56;2.70;;;0.85;;
49972;SDS011;71845;49.798;10.968;2023-12-20T10:28:34;4.03;;;0.95;;
49972;SDS011;71845;49.798;10.968;2023-12-20T10:31:05;2.28;;;0.90;;
49972;SDS011;71845;49.798;10.968;2023-12-20T10:33:35;5.75;;;0.85;;
49972;SDS011;71845;49.798;10.968;2023-12-20T10:36:12;4.57;;;1.02;;
49972;SDS011;71845;49.798;10.968;2023-12-20T10:38:48;4.45;;;0.80;;
49972;SDS011;71845;49.798;10.968;2023-12-20T10:41:25;2.15;;;0.60;;
49972;SDS011;71845;49.798;10.968;2023-12-20T10:43:57;4.13;;;1.00;;
49972;SDS011;71845;49.798;10.968;2023-12-20T10:46:34;3.95;;;0.93;;
49972;SDS011;71845;49.798;10.968;2023-12-20T10:49:03;5.00;;;1.17;;
49972;SDS011;71845;49.798;10.968;2023-12-20T10:51:35;2.10;;;0.70;;
49972;SDS011;71845;49.798;10.968;2023-12-20T10:54:03;4.85;;;1.15;;
49972;SDS011;71845;49.798;10.968;2023-12-20T10:56:31;3.67;;;0.93;;
49972;SDS011;71845;49.798;10.968;2023-12-20T11:01:51;6.15;;;0.90;;
49972;SDS011;71845;49.798;10.968;2023-12-20T11:04:36;2.20;;;0.90;;
49972;SDS011;71845;49.798;10.968;2023-12-20T11:07:15;5.32;;;1.08;;
49972;SDS011;71845;49.798;10.968;2023-12-20T11:09:53;3.45;;;0.77;;
49972;SDS011;71845;49.798;10.968;2023-12-20T11:12:36;4.65;;;0.77;;
49972;SDS011;71845;49.798;10.968;2023-12-20T11:15:22;4.03;;;0.95;;
49972;SDS011;71845;49.798;10.968;2023-12-20T11:17:57;2.00;;;0.63;;
49972;SDS011;71845;49.798;10.968;2023-12-20T11:20:37;5.97;;;1.20;;
49972;SDS011;71845;49.798;10.968;2023-12-20T11:23:08;4.30;;;0.85;;
49972;SDS011;71845;49.798;10.968;2023-12-20T11:25:49;3.55;;;1.02;;
49972;SDS011;71845;49.798;10.968;2023-12-20T11:28:24;2.55;;;0.82;;
49972;SDS011;71845;49.798;10.968;2023-12-20T11:30:58;3.40;;;1.45;;
49972;SDS011;71845;49.798;10.968;2023-12-20T11:33:35;2.40;;;0.90;;
49972;SDS011;71845;49.798;10.968;2023-12-20T11:36:13;4.88;;;1.02;;
49972;SDS011;71845;49.798;10.968;2023-12-20T11:38:53;4.57;;;1.10;;
49972;SDS011;71845;49.798;10.968;2023-12-20T11:41:27;4.88;;;1.17;;
49972;SDS011;71845;49.798;10.968;2023-12-20T11:43:55;3.17;;;0.80;;
49972;SDS011;71845;49.798;10.968;2023-12-20T11:46:26;2.85;;;0.85;;
49972;SDS011;71845;49.798;10.968;2023-12-20T11:49:00;5.32;;;1.00;;
49972;SDS011;71845;49.798;10.968;2023-12-20T11:51:43;2.28;;;0.55;;
49972;SDS011;71845;49.798;10.968;2023-12-20T11:54:20;3.72;;;0.70;;
49972;SDS011;71845;49.798;10.968;2023-12-20T11:56:49;3.38;;;0.90;;
49972;SDS011;71845;49.798;10.968;2023-12-20T11:59:31;3.85;;;0.88;;
49972;SDS011;71845;49.798;10.968;2023-12-20T12:02:05;3.83;;;0.90;;
49972;SDS011;71845;49.798;10.968;2023-12-20T12:04:42;2.30;;;0.75;;
49972;SDS011;71845;49.798;10.968;2023-12-20T12:07:13;4.30;;;1.00;;
49972;SDS011;71845;49.798;10.968;2023-12-20T12:09:43;4.50;;;0.98;;
49972;SDS011;71845;49.798;10.968;2023-12-20T12:12:13;3.78;;;0.82;;
49972;SDS011;71845;49.798;10.968;2023-12-20T12:14:44;3.47;;;0.90;;
49972;SDS011;71845;49.798;10.968;2023-12-20T12:17:32;2.00;;;0.70;;
49972;SDS011;71845;49.798;10.968;2023-12-20T12:20:03;6.00;;;1.17;;
49972;SDS011;71845;49.798;10.968;2023-12-20T12:22:36;3.88;;;0.85;;
49972;SDS011;71845;49.798;10.968;2023-12-20T12:25:14;4.45;;;0.90;;
49972;SDS011;71845;49.798;10.968;2023-12-20T12:27:44;4.78;;;1.00;;
49972;SDS011;71845;49.798;10.968;2023-12-20T12:30:12;4.75;;;1.08;;
49972;SDS011;71845;49.798;10.968;2023-12-20T12:32:47;7.03;;;1.60;;
49972;SDS011;71845;49.798;10.968;2023-12-20T12:35:24;3.60;;;1.23;;
49972;SDS011;71845;49.798;10.968;2023-12-20T12:38:01;3.72;;;1.08;;
49972;SDS011;71845;49.798;10.968;2023-12-20T12:40:34;3.83;;;1.27;;
49972;SDS011;71845;49.798;10.968;2023-12-20T12:43:16;2.08;;;0.80;;
49972;SDS011;71845;49.798;10.968;2023-12-20T12:45:43;4.82;;;1.02;;
49972;SDS011;71845;49.798;10.968;2023-12-20T12:48:13;3.50;;;0.88;;
49972;SDS011;71845;49.798;10.968;2023-12-20T12:50:41;3.88;;;0.98;;
49972;SDS011;71845;49.798;10.968;2023-12-20T12:53:08;4.40;;;0.98;;
49972;SDS011;71845;49.798;10.968;2023-12-20T12:55:36;4.70;;;1.17;;
49972;SDS011;71845;49.798;10.968;2023-12-20T12:58:06;4.57;;;0.98;;
49972;SDS011;71845;49.798;10.968;2023-12-20T13:00:38;3.10;;;0.80;;
49972;SDS011;71845;49.798;10.968;2023-12-20T13:03:09;1.95;;;0.80;;
49972;SDS011;71845;49.798;10.968;2023-12-20T13:05:52;2.38;;;0.73;;
49972;SDS011;71845;49.798;10.968;2023-12-20T13:08:23;5.07;;;0.88;;
49972;SDS011;71845;49.798;10.968;2023-12-20T13:10:55;6.03;;;0.90;;
49972;SDS011;71845;49.798;10.968;2023-12-20T13:13:27;3.50;;;0.98;;
49972;SDS011;71845;49.798;10.968;2023-12-20T13:15:57;5.30;;;0.88;;
49972;SDS011;71845;49.798;10.968;2023-12-20T13:18:26;4.00;;;1.05;;
49972;SDS011;71845;49.798;10.968;2023-12-20T13:21:13;3.05;;;0.80;;
49972;SDS011;71845;49.798;10.968;2023-12-20T13:23:44;3.95;;;1.05;;
49972;SDS011;71845;49.798;10.968;2023-12-20T13:26:15;2.33;;;0.90;;
49972;SDS011;71845;49.798;10.968;2023-12-20T13:28:45;5.68;;;1.20;;
49972;SDS011;71845;49.798;10.968;2023-12-20T13:31:15;2.50;;;0.85;;
49972;SDS011;71845;49.798;10.968;2023-12-20T13:33:45;2.58;;;0.73;;
49972;SDS011;71845;49.798;10.968;2023-12-20T13:36:16;4.53;;;0.93;;
49972;SDS011;71845;49.798;10.968;2023-12-20T13:38:46;2.50;;;1.10;;
49972;SDS011;71845;49.798;10.968;2023-12-20T13:41:17;4.45;;;1.10;;
49972;SDS011;71845;49.798;10.968;2023-12-20T13:43:47;4.10;;;1.58;;
49972;SDS011;71845;49.798;10.968;2023-12-20T13:46:15;7.15;;;2.00;;
49972;SDS011;71845;49.798;10.968;2023-12-20T13:48:43;13.85;;;4.40;;
49972;SDS011;71845;49.798;10.968;2023-12-20T13:51:14;16.23;;;5.22;;
49972;SDS011;71845;49.798;10.968;2023-12-20T13:53:49;24.85;;;7.10;;
49972;SDS011;71845;49.798;10.968;2023-12-20T13:56:17;25.15;;;6.97;;
49972;SDS011;71845;49.798;10.968;2023-12-20T13:58:50;15.40;;;4.90;;
49972;SDS011;71845;49.798;10.968;2023-12-20T14:01:20;5.30;;;2.00;;
49972;SDS011;71845;49.798;10.968;2023-12-20T14:03:50;7.25;;;2.95;;
49972;SDS011;71845;49.798;10.968;2023-12-20T14:06:21;4.50;;;1.50;;
49972;SDS011;71845;49.798;10.968;2023-12-20T14:08:50;2.40;;;0.90;;
49972;SDS011;71845;49.798;10.968;2023-12-20T14:11:26;6.38;;;1.75;;
49972;SDS011;71845;49.798;10.968;2023-12-20T14:13:55;6.40;;;1.27;;
49972;SDS011;71845;49.798;10.968;2023-12-20T14:16:24;3.55;;;1.08;;
49972;SDS011;71845;49.798;10.968;2023-12-20T14:18:56;6.50;;;1.13;;
49972;SDS011;71845;49.798;10.968;2023-12-20T14:21:30;5.60;;;1.45;;
49972;SDS011;71845;49.798;10.968;2023-12-20T14:24:14;4.45;;;0.95;;
49972;SDS011;71845;49.798;10.968;2023-12-20T14:26:45;1.50;;;0.88;;
49972;SDS011;71845;49.798;10.968;2023-12-20T14:29:15;3.38;;;0.73;;
49972;SDS011;71845;49.798;10.968;2023-12-20T14:31:45;5.93;;;0.90;;
49972;SDS011;71845;49.798;10.968;2023-12-20T14:34:18;3.85;;;0.88;;
49972;SDS011;71845;49.798;10.968;2023-12-20T14:36:48;4.68;;;0.75;;
49972;SDS011;71845;49.798;10.968;2023-12-20T14:39:20;4.47;;;0.75;;
49972;SDS011;71845;49.798;10.968;2023-12-20T14:41:52;5.13;;;1.10;;
49972;SDS011;71845;49.798;10.968;2023-12-20T14:44:21;4.05;;;0.88;;
49972;SDS011;71845;49.798;10.968;2023-12-20T14:46:49;5.35;;;1.33;;
49972;SDS011;71845;49.798;10.968;2023-12-20T14:49:17;3.50;;;1.08;;
49972;SDS011;71845;49.798;10.968;2023-12-20T14:51:48;4.78;;;1.00;;
49972;SDS011;71845;49.798;10.968;2023-12-20T14:54:16;4.72;;;1.02;;
49972;SDS011;71845;49.798;10.968;2023-12-20T14:56:52;2.85;;;0.93;;
49972;SDS011;71845;49.798;10.968;2023-12-20T14:59:21;4.10;;;1.50;;
49972;SDS011;71845;49.798;10.968;2023-12-20T15:01:51;6.18;;;1.02;;
49972;SDS011;71845;49.798;10.968;2023-12-20T15:04:22;4.30;;;1.30;;